Time;durP1;ratioP1;P1;durP2;ratioP2;P2;SDS_P1;SDS_P2;PMS_P1;PMS_P2;Temp;Humidity;BMP_temperature;BMP_pressure;BME280_temperature;BME280_humidity;BME280_pressure;Samples;Min_cycle;Max_cycle;Signal;HPM_P1;HPM_P2
2023/12/27 00:01:51;;;;;;;10.05;3.00;;;3.80;99.90;;;;;;5012854;28;20051;-89
2023/12/27 00:04:20;;;;;;;7.03;2.40;;;3.80;99.90;;;;;;4996217;28;20072;-90
2023/12/27 00:06:46;;;;;;;7.28;2.42;;;3.80;99.90;;;;;;5012786;28;20042;-90
2023/12/27 00:09:12;;;;;;;4.72;2.03;;;3.80;99.90;;;;;;5012879;28;20041;-90
2023/12/27 00:11:37;;;;;;;11.75;2.92;;;3.80;99.90;;;;;;4996666;28;20397;-89
2023/12/27 00:14:03;;;;;;;11.35;2.58;;;3.70;99.90;;;;;;4996094;28;20037;-89
2023/12/27 00:16:29;;;;;;;10.63;2.80;;;3.80;99.90;;;;;;4996448;28;20591;-89
2023/12/27 00:18:55;;;;;;;8.50;2.38;;;3.80;99.90;;;;;;4996513;28;20033;-89
2023/12/27 00:21:21;;;;;;;9.10;2.70;;;3.70;99.90;;;;;;5012994;28;20160;-88
2023/12/27 00:23:46;;;;;;;15.13;2.78;;;3.70;99.90;;;;;;4997564;28;20120;-89
2023/12/27 00:26:13;;;;;;;6.97;3.17;;;3.70;99.90;;;;;;5015797;28;20048;-89
2023/12/27 00:28:38;;;;;;;5.45;1.90;;;3.70;99.90;;;;;;5022637;28;20037;-88
2023/12/27 00:31:04;;;;;;;7.82;2.30;;;3.70;99.90;;;;;;5014328;28;20033;-89
2023/12/27 00:33:29;;;;;;;6.88;2.38;;;3.70;99.90;;;;;;4995896;28;20041;-88
2023/12/27 00:35:55;;;;;;;8.80;2.58;;;3.60;99.90;;;;;;4996339;28;20048;-88
2023/12/27 00:38:21;;;;;;;11.95;2.53;;;3.60;99.90;;;;;;5012309;28;20421;-88
2023/12/27 00:40:46;;;;;;;15.43;2.92;;;3.70;99.90;;;;;;4996142;28;20044;-88
2023/12/27 00:43:12;;;;;;;7.57;2.10;;;3.70;99.90;;;;;;5011378;28;20079;-88
2023/12/27 00:45:37;;;;;;;11.20;2.42;;;3.70;99.90;;;;;;5012441;28;20037;-88
2023/12/27 00:48:03;;;;;;;10.55;2.50;;;3.70;99.90;;;;;;4995955;28;20045;-89
2023/12/27 00:50:29;;;;;;;6.57;2.15;;;3.80;99.90;;;;;;5011970;28;20033;-89
2023/12/27 00:52:54;;;;;;;11.35;3.15;;;3.80;99.90;;;;;;4995988;28;20381;-89
2023/12/27 00:55:20;;;;;;;8.50;2.72;;;3.80;99.90;;;;;;5012216;28;20037;-89
2023/12/27 00:57:53;;;;;;;15.25;2.10;;;3.70;99.90;;;;;;4993539;28;20103;-89
2023/12/27 01:00:19;;;;;;;10.43;2.07;;;3.70;99.90;;;;;;4989383;28;20103;-89
2023/12/27 01:02:44;;;;;;;9.02;2.30;;;3.70;99.90;;;;;;5010521;28;20424;-88
2023/12/27 01:05:10;;;;;;;20.33;2.30;;;3.70;99.90;;;;;;5009598;28;20041;-90
2023/12/27 01:07:36;;;;;;;8.88;2.50;;;3.70;99.90;;;;;;5010764;28;20107;-89
2023/12/27 01:10:03;;;;;;;14.38;3.17;;;3.60;99.90;;;;;;5011061;28;20124;-89
2023/12/27 01:12:29;;;;;;;12.32;2.60;;;3.70;99.90;;;;;;4995126;28;20041;-89
2023/12/27 01:14:55;;;;;;;10.50;2.65;;;3.70;99.90;;;;;;4991916;28;20034;-89
2023/12/27 01:17:20;;;;;;;6.75;1.88;;;3.70;99.90;;;;;;5010417;28;20083;-89
2023/12/27 01:19:46;;;;;;;5.70;1.80;;;3.70;99.90;;;;;;4993870;28;20073;-89
2023/12/27 01:22:11;;;;;;;8.20;2.38;;;3.70;99.90;;;;;;5010735;28;20049;-89
2023/12/27 01:24:37;;;;;;;6.65;2.38;;;3.70;99.90;;;;;;5011433;28;20060;-89
2023/12/27 01:27:04;;;;;;;9.90;2.17;;;3.70;99.90;;;;;;5011029;28;20037;-89
2023/12/27 01:29:29;;;;;;;12.73;2.33;;;3.70;99.90;;;;;;5011485;28;20041;-89
2023/12/27 01:31:55;;;;;;;9.15;2.35;;;3.80;99.90;;;;;;4994270;28;20164;-89
2023/12/27 01:34:20;;;;;;;6.45;2.33;;;3.70;99.90;;;;;;4994842;28;20037;-89
2023/12/27 01:36:46;;;;;;;10.32;2.50;;;3.80;99.90;;;;;;4995300;28;20041;-90
2023/12/27 01:39:12;;;;;;;8.10;2.38;;;3.80;99.90;;;;;;4994591;28;20053;-89
2023/12/27 01:41:37;;;;;;;6.22;2.30;;;3.80;99.90;;;;;;5011734;28;20084;-89
2023/12/27 01:44:03;;;;;;;9.88;2.65;;;3.70;99.90;;;;;;4994530;28;20049;-89
2023/12/27 01:46:30;;;;;;;6.97;2.75;;;3.70;99.90;;;;;;5011203;28;20518;-89
2023/12/27 01:48:57;;;;;;;7.82;2.20;;;3.80;99.90;;;;;;4995176;28;20413;-89
2023/12/27 01:51:23;;;;;;;9.45;2.15;;;3.80;99.90;;;;;;5010665;28;20040;-89
2023/12/27 01:53:50;;;;;;;9.93;2.38;;;3.80;99.90;;;;;;4995158;28;20046;-89
2023/12/27 01:56:16;;;;;;;11.23;2.83;;;3.70;99.90;;;;;;5014645;28;20489;-90
2023/12/27 01:58:41;;;;;;;9.25;2.67;;;3.80;99.90;;;;;;4998615;28;20045;-90
2023/12/27 02:01:07;;;;;;;10.10;3.40;;;3.80;99.90;;;;;;4997921;28;20053;-89
2023/12/27 02:03:32;;;;;;;14.63;10.35;;;3.70;99.90;;;;;;4996135;28;20508;-90
2023/12/27 02:05:59;;;;;;;15.18;9.95;;;3.70;99.90;;;;;;4997945;28;20049;-89
2023/12/27 02:08:26;;;;;;;9.40;3.25;;;3.60;99.90;;;;;;4996861;28;20037;-89
2023/12/27 02:10:51;;;;;;;8.68;2.60;;;3.60;99.90;;;;;;4997714;28;20145;-89
2023/12/27 02:13:17;;;;;;;7.05;1.77;;;3.60;99.90;;;;;;4997224;28;20125;-89
2023/12/27 02:15:43;;;;;;;7.05;2.38;;;3.60;99.90;;;;;;4993778;28;20140;-90
2023/12/27 02:18:10;;;;;;;9.48;2.40;;;3.50;99.90;;;;;;5012759;28;20037;-89
2023/12/27 02:20:36;;;;;;;5.13;1.63;;;3.50;99.90;;;;;;4996724;28;20049;-89
2023/12/27 02:23:06;;;;;;;5.88;2.85;;;3.50;99.90;;;;;;4994626;28;20595;-89
2023/12/27 02:25:32;;;;;;;8.68;3.22;;;3.40;99.90;;;;;;5013811;28;20049;-89
2023/12/27 02:27:58;;;;;;;6.40;2.90;;;3.40;99.90;;;;;;5013935;28;20038;-89
2023/12/27 02:30:24;;;;;;;5.68;2.15;;;3.30;99.90;;;;;;5014853;28;20045;-89
2023/12/27 02:32:50;;;;;;;2.88;1.50;;;3.30;99.90;;;;;;4998156;28;20472;-89
2023/12/27 02:35:17;;;;;;;6.85;1.52;;;3.30;99.90;;;;;;4998786;28;20041;-89
2023/12/27 02:37:43;;;;;;;1.77;0.82;;;3.20;99.90;;;;;;4998560;28;20048;-90
2023/12/27 02:40:09;;;;;;;2.22;1.08;;;3.20;99.90;;;;;;5014400;28;20408;-90
2023/12/27 02:42:36;;;;;;;3.03;1.40;;;3.20;99.90;;;;;;4998236;28;20576;-89
2023/12/27 02:45:02;;;;;;;1.58;1.00;;;3.10;99.90;;;;;;4998364;28;20124;-90
2023/12/27 02:47:28;;;;;;;1.75;0.85;;;3.20;99.90;;;;;;4999732;28;20129;-89
2023/12/27 02:49:53;;;;;;;3.97;1.20;;;3.10;99.90;;;;;;5004405;28;20022;-89
2023/12/27 02:52:19;;;;;;;4.18;1.10;;;3.00;99.90;;;;;;5006978;28;20535;-89
2023/12/27 02:54:45;;;;;;;2.63;1.30;;;3.00;99.90;;;;;;5013304;28;20048;-90
2023/12/27 02:57:10;;;;;;;4.07;1.40;;;3.00;99.90;;;;;;4997152;28;20037;-89
2023/12/27 02:59:36;;;;;;;5.15;1.50;;;3.00;99.90;;;;;;5013334;28;20041;-90
2023/12/27 03:02:01;;;;;;;5.60;1.67;;;2.90;99.90;;;;;;4996900;28;20131;-90
2023/12/27 03:04:27;;;;;;;4.15;1.60;;;2.90;99.90;;;;;;5012947;28;20045;-89
2023/12/27 03:06:53;;;;;;;3.13;1.50;;;2.90;99.90;;;;;;5013380;28;20048;-88
2023/12/27 03:09:18;;;;;;;4.63;1.40;;;2.90;99.90;;;;;;4997829;28;20463;-89
2023/12/27 03:11:44;;;;;;;4.43;1.48;;;2.90;99.90;;;;;;5013763;28;20071;-89
2023/12/27 03:14:09;;;;;;;3.15;1.50;;;2.90;99.90;;;;;;5013202;28;20634;-89
2023/12/27 03:16:35;;;;;;;4.47;1.80;;;2.80;99.90;;;;;;4997461;28;20124;-89
2023/12/27 03:19:01;;;;;;;4.15;1.55;;;2.80;99.90;;;;;;4996023;28;20408;-88
2023/12/27 03:21:26;;;;;;;5.65;1.67;;;2.80;99.90;;;;;;5007174;28;20130;-89
2023/12/27 03:23:52;;;;;;;3.78;1.75;;;2.80;99.90;;;;;;4995691;28;20038;-89
2023/12/27 03:26:17;;;;;;;8.75;2.42;;;2.90;99.90;;;;;;5013032;28;20129;-89
2023/12/27 03:28:43;;;;;;;7.25;2.20;;;2.90;99.90;;;;;;5013150;28;20041;-89
2023/12/27 03:31:09;;;;;;;7.93;1.90;;;2.90;99.90;;;;;;4996792;28;20037;-88
2023/12/27 03:33:35;;;;;;;8.10;2.17;;;3.00;99.90;;;;;;4996550;28;20128;-89
2023/12/27 03:36:01;;;;;;;7.28;2.83;;;3.00;99.90;;;;;;5013494;28;20059;-88
2023/12/27 03:38:27;;;;;;;6.28;2.67;;;3.00;99.90;;;;;;4997018;28;20037;-89
2023/12/27 03:40:52;;;;;;;6.55;2.72;;;3.10;99.90;;;;;;4997041;28;20071;-89
2023/12/27 03:43:18;;;;;;;10.20;3.67;;;3.10;99.90;;;;;;5012989;28;20515;-88
2023/12/27 03:45:45;;;;;;;8.75;3.92;;;3.10;99.90;;;;;;4996849;28;20542;-89
2023/12/27 03:48:11;;;;;;;6.53;2.55;;;3.10;99.90;;;;;;4996946;28;20046;-89
2023/12/27 03:50:36;;;;;;;4.43;1.90;;;3.10;99.90;;;;;;5003773;28;20045;-88
2023/12/27 03:53:02;;;;;;;6.30;1.90;;;3.10;99.90;;;;;;5010002;28;20044;-89
2023/12/27 03:55:28;;;;;;;5.68;1.95;;;3.10;99.90;;;;;;5013494;28;20464;-89
2023/12/27 03:57:54;;;;;;;8.38;3.05;;;3.10;99.90;;;;;;5017980;28;20056;-89
2023/12/27 04:00:20;;;;;;;11.25;6.32;;;3.10;99.90;;;;;;4999460;28;20491;-90
2023/12/27 04:02:46;;;;;;;9.23;4.85;;;3.10;99.90;;;;;;5016208;28;20041;-90
2023/12/27 04:05:15;;;;;;;9.73;4.57;;;3.10;99.90;;;;;;4999583;28;20247;-89
2023/12/27 04:07:40;;;;;;;8.13;3.47;;;3.10;99.90;;;;;;5014078;28;20053;-89
2023/12/27 04:10:06;;;;;;;6.13;2.63;;;3.10;99.90;;;;;;5014049;28;20416;-89
2023/12/27 04:12:32;;;;;;;5.32;2.10;;;3.10;99.90;;;;;;4996508;28;20037;-89
2023/12/27 04:14:58;;;;;;;7.43;2.22;;;3.20;99.90;;;;;;4995748;28;20138;-89
2023/12/27 04:17:25;;;;;;;7.82;2.85;;;3.10;99.90;;;;;;5013154;28;20069;-89
2023/12/27 04:19:51;;;;;;;6.07;2.70;;;3.10;99.90;;;;;;5006283;28;20045;-89
2023/12/27 04:22:16;;;;;;;7.05;2.55;;;3.10;99.90;;;;;;5012261;28;20129;-89
2023/12/27 04:24:42;;;;;;;7.55;2.65;;;3.10;99.90;;;;;;5012705;28;20041;-89
2023/12/27 04:27:07;;;;;;;13.57;3.33;;;3.10;99.90;;;;;;4996266;28;20038;-89
2023/12/27 04:29:33;;;;;;;6.88;2.40;;;3.10;99.90;;;;;;5012399;28;20043;-90
2023/12/27 04:31:59;;;;;;;5.82;2.53;;;3.10;99.90;;;;;;4996184;28;20393;-88
2023/12/27 04:34:24;;;;;;;5.95;1.90;;;3.10;99.90;;;;;;4996092;28;20443;-89
2023/12/27 04:36:50;;;;;;;4.75;1.85;;;3.10;99.90;;;;;;4996506;28;20049;-89
2023/12/27 04:39:16;;;;;;;7.03;2.55;;;3.10;99.90;;;;;;4996397;28;20477;-89
2023/12/27 04:41:41;;;;;;;7.45;2.45;;;3.10;99.90;;;;;;5012470;28;20033;-89
2023/12/27 04:44:07;;;;;;;6.55;2.72;;;3.10;99.90;;;;;;5011405;28;20043;-89
2023/12/27 04:46:35;;;;;;;5.50;2.35;;;3.10;99.90;;;;;;4996020;28;20037;-89
2023/12/27 04:49:01;;;;;;;6.75;2.15;;;3.10;99.90;;;;;;4995450;28;20083;-88
2023/12/27 04:51:26;;;;;;;6.22;2.50;;;3.10;99.90;;;;;;4995870;28;20029;-89
2023/12/27 04:53:52;;;;;;;6.90;2.45;;;3.00;99.90;;;;;;4995455;28;20156;-89
2023/12/27 04:56:18;;;;;;;6.65;2.67;;;3.10;99.90;;;;;;5012086;28;20049;-88
2023/12/27 04:58:43;;;;;;;6.38;2.25;;;3.00;99.90;;;;;;5012261;28;20523;-88
2023/12/27 05:01:09;;;;;;;4.45;2.20;;;3.00;99.90;;;;;;4995880;28;20946;-89
2023/12/27 05:03:37;;;;;;;4.57;2.08;;;3.00;99.90;;;;;;4995996;28;20048;-88
2023/12/27 05:06:08;;;;;;;5.07;2.20;;;3.00;99.90;;;;;;5013759;28;20052;-89
2023/12/27 05:08:34;;;;;;;4.97;2.35;;;3.00;99.90;;;;;;4998153;28;20040;-88
2023/12/27 05:11:00;;;;;;;6.18;1.88;;;3.00;99.90;;;;;;5023899;28;20624;-89
2023/12/27 05:13:25;;;;;;;7.82;2.58;;;3.00;99.90;;;;;;4999540;28;20047;-89
2023/12/27 05:15:51;;;;;;;5.50;2.35;;;3.00;99.90;;;;;;5012305;28;20039;-88
2023/12/27 05:18:16;;;;;;;9.23;2.17;;;3.00;99.90;;;;;;5011747;28;20036;-89
2023/12/27 05:20:42;;;;;;;8.00;2.83;;;3.00;99.90;;;;;;5007080;28;20508;-89
2023/12/27 05:23:08;;;;;;;6.10;2.47;;;3.00;99.90;;;;;;4995129;28;20044;-88
2023/12/27 05:25:33;;;;;;;4.80;2.35;;;3.00;99.90;;;;;;5011789;28;20033;-89
2023/12/27 05:27:59;;;;;;;8.40;3.05;;;3.10;99.90;;;;;;5011810;28;20045;-89
2023/12/27 05:30:24;;;;;;;6.03;2.92;;;3.10;99.90;;;;;;4998728;28;20485;-89
2023/12/27 05:32:50;;;;;;;8.60;2.97;;;3.10;99.90;;;;;;4999523;28;20084;-88
2023/12/27 05:35:15;;;;;;;8.55;3.55;;;3.20;99.90;;;;;;4999439;28;20479;-89
2023/12/27 05:37:41;;;;;;;16.95;9.00;;;3.20;99.90;;;;;;5015728;28;20132;-89
2023/12/27 05:40:07;;;;;;;10.77;3.90;;;3.20;99.90;;;;;;5015368;28;20037;-89
2023/12/27 05:42:33;;;;;;;8.63;3.42;;;3.20;99.90;;;;;;5015446;28;20037;-89
2023/12/27 05:44:58;;;;;;;15.52;5.43;;;3.30;99.90;;;;;;4999026;28;20049;-88
2023/12/27 05:47:24;;;;;;;7.63;3.30;;;3.30;99.90;;;;;;4998649;28;20632;-89
2023/12/27 05:49:50;;;;;;;12.70;4.10;;;3.30;99.90;;;;;;5015527;28;20041;-89
2023/12/27 05:52:15;;;;;;;9.95;3.38;;;3.40;99.90;;;;;;5015315;28;20100;-89
2023/12/27 05:54:41;;;;;;;9.25;4.05;;;3.40;99.90;;;;;;5015179;28;20042;-89
2023/12/27 05:57:07;;;;;;;7.82;3.10;;;3.40;99.90;;;;;;4999039;28;20052;-89
2023/12/27 05:59:33;;;;;;;7.03;2.70;;;3.40;99.90;;;;;;5015424;28;20095;-89
2023/12/27 06:01:59;;;;;;;10.68;3.33;;;3.40;99.90;;;;;;4999242;28;20045;-89
2023/12/27 06:04:24;;;;;;;11.10;4.15;;;3.40;99.90;;;;;;5014773;28;20077;-90
2023/12/27 06:06:50;;;;;;;7.80;3.20;;;3.40;99.90;;;;;;4998910;28;20397;-89
2023/12/27 06:09:20;;;;;;;9.50;3.63;;;3.40;99.90;;;;;;4998623;28;20409;-88
2023/12/27 06:11:46;;;;;;;7.82;3.67;;;3.40;99.90;;;;;;5015143;28;20029;-89
2023/12/27 06:14:15;;;;;;;7.68;3.80;;;3.50;99.90;;;;;;4998625;28;20060;-89
2023/12/27 06:16:40;;;;;;;7.32;3.45;;;3.50;99.90;;;;;;4998102;28;20042;-89
2023/12/27 06:19:06;;;;;;;12.20;3.65;;;3.50;99.90;;;;;;4997765;28;20072;-89
2023/12/27 06:21:32;;;;;;;14.50;4.00;;;3.50;99.90;;;;;;4998380;28;20116;-88
2023/12/27 06:23:57;;;;;;;9.25;3.38;;;3.50;99.90;;;;;;5014164;28;20471;-89
2023/12/27 06:26:23;;;;;;;9.48;4.55;;;3.50;99.90;;;;;;5014857;28;20048;-89
2023/12/27 06:28:49;;;;;;;9.57;4.50;;;3.60;99.90;;;;;;4998636;28;20041;-88
2023/12/27 06:31:14;;;;;;;10.75;3.90;;;3.50;99.90;;;;;;4998526;28;20052;-89
2023/12/27 06:33:40;;;;;;;12.38;3.47;;;3.60;99.90;;;;;;5014477;28;20046;-90
2023/12/27 06:36:06;;;;;;;7.30;3.10;;;3.60;99.90;;;;;;4998129;28;20094;-90
2023/12/27 06:38:32;;;;;;;8.23;3.65;;;3.60;99.90;;;;;;4998246;28;20120;-89
2023/12/27 06:41:00;;;;;;;7.93;3.50;;;3.60;99.90;;;;;;5013097;28;20477;-89
2023/12/27 06:43:26;;;;;;;8.75;4.22;;;3.70;99.90;;;;;;4997804;28;20037;-89
2023/12/27 06:45:52;;;;;;;8.00;3.45;;;3.70;99.90;;;;;;5013594;28;20033;-89
2023/12/27 06:48:17;;;;;;;11.18;4.18;;;3.70;99.90;;;;;;5014611;28;20045;-89
2023/12/27 06:50:43;;;;;;;8.88;3.63;;;3.70;99.90;;;;;;4998605;28;20033;-89
2023/12/27 06:53:09;;;;;;;8.85;3.72;;;3.70;99.90;;;;;;4997336;28;20385;-89
2023/12/27 06:55:34;;;;;;;8.25;3.42;;;3.70;99.90;;;;;;4997421;28;20392;-89
2023/12/27 06:58:00;;;;;;;8.82;4.53;;;3.70;99.90;;;;;;4996421;28;20042;-89
2023/12/27 07:00:29;;;;;;;11.60;5.25;;;3.80;99.90;;;;;;4997655;28;20550;-89
2023/12/27 07:02:55;;;;;;;13.23;4.25;;;3.80;99.90;;;;;;4997460;28;20120;-89
2023/12/27 07:05:20;;;;;;;8.93;3.92;;;3.80;99.90;;;;;;5014088;28;20124;-89
2023/12/27 07:07:46;;;;;;;11.20;3.38;;;3.80;99.90;;;;;;5013990;28;20038;-88
2023/12/27 07:10:12;;;;;;;10.18;3.60;;;3.80;99.90;;;;;;5014042;28;20037;-89
2023/12/27 07:12:39;;;;;;;10.93;4.40;;;3.90;99.90;;;;;;5013795;28;20451;-89
2023/12/27 07:15:07;;;;;;;11.57;4.18;;;3.90;99.90;;;;;;5012549;28;20042;-89
2023/12/27 07:17:33;;;;;;;12.32;5.00;;;3.90;99.90;;;;;;4997523;28;20382;-89
2023/12/27 07:19:59;;;;;;;10.73;5.75;;;3.90;99.90;;;;;;5011386;28;20065;-89
2023/12/27 07:22:25;;;;;;;12.48;4.10;;;4.00;99.90;;;;;;5013104;28;20464;-88
2023/12/27 07:24:50;;;;;;;14.82;5.65;;;4.00;99.90;;;;;;4997972;28;20037;-88
2023/12/27 07:27:16;;;;;;;12.00;4.60;;;4.00;99.90;;;;;;4998236;28;20095;-89
2023/12/27 07:29:42;;;;;;;9.88;3.75;;;4.10;99.90;;;;;;4998353;28;20033;-88
2023/12/27 07:32:07;;;;;;;15.55;4.80;;;4.10;99.90;;;;;;5004038;28;20100;-88
2023/12/27 07:34:33;;;;;;;12.00;4.85;;;4.10;99.90;;;;;;5012153;28;20025;-88
2023/12/27 07:36:59;;;;;;;11.43;4.82;;;4.20;99.90;;;;;;5013099;28;20041;-88
2023/12/27 07:39:25;;;;;;;11.70;4.93;;;4.20;99.90;;;;;;5013057;28;20047;-88
2023/12/27 07:41:50;;;;;;;11.65;5.40;;;4.20;99.90;;;;;;5013053;28;20048;-88
2023/12/27 07:44:16;;;;;;;10.45;4.57;;;4.30;99.90;;;;;;4992958;28;20415;-88
2023/12/27 07:46:43;;;;;;;15.18;4.90;;;4.30;99.90;;;;;;4994556;28;20040;-88
2023/12/27 07:49:09;;;;;;;12.25;4.65;;;4.30;99.90;;;;;;5012365;28;20550;-89
2023/12/27 07:51:34;;;;;;;13.70;4.07;;;4.40;99.90;;;;;;4995993;28;20041;-88
2023/12/27 07:54:00;;;;;;;14.77;5.30;;;4.40;99.90;;;;;;4994966;28;20033;-89
2023/12/27 07:56:27;;;;;;;12.32;4.50;;;4.40;99.90;;;;;;4995296;28;20524;-90
2023/12/27 07:58:53;;;;;;;14.55;4.22;;;4.40;99.90;;;;;;4995798;28;20136;-89
2023/12/27 08:01:19;;;;;;;7.95;3.45;;;4.40;99.90;;;;;;5011941;28;20041;-88
2023/12/27 08:03:45;;;;;;;14.35;3.92;;;4.50;99.90;;;;;;5011374;28;20045;-89
2023/12/27 08:06:11;;;;;;;11.30;4.22;;;4.50;99.90;;;;;;4995412;28;20049;-89
2023/12/27 08:08:36;;;;;;;8.80;3.50;;;4.50;99.90;;;;;;4996096;28;20037;-88
2023/12/27 08:11:05;;;;;;;10.93;4.32;;;4.60;99.90;;;;;;5012101;28;20040;-89
2023/12/27 08:13:37;;;;;;;8.55;3.75;;;4.60;99.90;;;;;;5012078;28;20049;-89
2023/12/27 08:16:03;;;;;;;12.53;4.87;;;4.60;99.90;;;;;;5011527;28;20036;-89
2023/12/27 08:18:29;;;;;;;8.55;4.18;;;4.60;99.90;;;;;;4996051;28;20041;-90
2023/12/27 08:20:55;;;;;;;9.93;3.72;;;4.60;99.90;;;;;;5012424;28;20402;-89
2023/12/27 08:23:21;;;;;;;11.68;5.22;;;4.60;99.90;;;;;;5011488;28;20496;-89
2023/12/27 08:25:47;;;;;;;7.72;3.20;;;4.70;99.90;;;;;;5011781;28;20104;-89
2023/12/27 08:28:14;;;;;;;12.55;4.47;;;4.70;99.90;;;;;;4994252;28;20068;-88
2023/12/27 08:30:40;;;;;;;13.32;4.10;;;4.70;99.90;;;;;;5007405;28;20033;-89
2023/12/27 08:33:06;;;;;;;7.32;2.75;;;4.70;99.90;;;;;;4993379;28;20072;-89
2023/12/27 08:35:33;;;;;;;8.50;4.07;;;4.80;99.90;;;;;;4994480;28;20096;-88
2023/12/27 08:37:59;;;;;;;10.35;4.30;;;4.80;99.90;;;;;;5008251;28;20037;-88
2023/12/27 08:40:25;;;;;;;14.93;5.78;;;4.80;99.90;;;;;;4994635;28;20492;-88
2023/12/27 08:42:51;;;;;;;16.58;4.78;;;4.80;99.90;;;;;;4994580;28;20079;-88
2023/12/27 08:45:16;;;;;;;10.68;4.93;;;4.90;99.90;;;;;;4992702;28;20041;-88
2023/12/27 08:47:43;;;;;;;12.15;4.32;;;4.90;99.90;;;;;;5009431;28;20037;-90
2023/12/27 08:50:09;;;;;;;13.43;4.85;;;4.90;99.90;;;;;;5011348;28;20044;-89
2023/12/27 08:52:35;;;;;;;10.70;4.13;;;4.90;99.90;;;;;;5007972;28;20038;-88
2023/12/27 08:55:02;;;;;;;11.55;4.93;;;5.00;99.90;;;;;;4993750;28;20045;-88
2023/12/27 08:57:27;;;;;;;15.18;5.28;;;5.00;99.90;;;;;;4993783;28;20484;-88
2023/12/27 08:59:53;;;;;;;13.18;5.85;;;5.00;99.90;;;;;;4993156;28;20045;-89
2023/12/27 09:02:19;;;;;;;15.15;4.32;;;5.10;99.90;;;;;;4994478;28;20037;-89
2023/12/27 09:04:44;;;;;;;10.88;5.07;;;5.00;99.90;;;;;;4993572;28;20065;-89
2023/12/27 09:07:10;;;;;;;10.82;4.60;;;5.10;99.90;;;;;;4994821;28;20512;-90
2023/12/27 09:09:36;;;;;;;13.57;5.45;;;5.10;99.90;;;;;;4995261;28;20041;-89
2023/12/27 09:12:04;;;;;;;14.02;5.18;;;5.10;99.90;;;;;;5010808;28;20045;-90
2023/12/27 09:14:30;;;;;;;11.18;4.93;;;5.10;99.90;;;;;;5010704;28;20034;-90
2023/12/27 09:16:55;;;;;;;10.02;4.82;;;5.20;99.90;;;;;;4993367;28;20103;-89
2023/12/27 09:19:21;;;;;;;12.88;3.90;;;5.20;99.90;;;;;;4995029;28;20124;-90
2023/12/27 09:21:47;;;;;;;14.23;4.68;;;5.20;99.90;;;;;;4994796;28;20459;-90
2023/12/27 09:24:13;;;;;;;11.52;4.93;;;5.30;99.90;;;;;;4994368;28;20042;-90
2023/12/27 09:26:42;;;;;;;9.05;4.55;;;5.30;99.90;;;;;;5011225;28;20501;-89
2023/12/27 09:29:11;;;;;;;13.70;4.55;;;5.30;99.90;;;;;;4993920;28;20049;-90
2023/12/27 09:31:36;;;;;;;15.50;5.88;;;5.30;99.90;;;;;;4994595;28;20033;-89
2023/12/27 09:34:02;;;;;;;9.75;4.32;;;5.30;99.90;;;;;;5009781;28;20087;-88
2023/12/27 09:36:28;;;;;;;14.00;6.07;;;5.40;99.90;;;;;;4994660;28;20411;-89
2023/12/27 09:38:54;;;;;;;15.57;5.65;;;5.40;99.90;;;;;;5008003;28;20504;-90
2023/12/27 09:41:20;;;;;;;12.90;5.57;;;5.40;99.90;;;;;;4989139;28;20530;-89
2023/12/27 09:43:47;;;;;;;8.73;4.60;;;5.40;99.90;;;;;;4989463;28;20492;-90
2023/12/27 09:46:17;;;;;;;14.40;4.78;;;5.50;99.90;;;;;;5005967;28;20120;-90
2023/12/27 09:48:45;;;;;;;13.75;5.65;;;5.50;99.90;;;;;;4992087;28;20523;-90
2023/12/27 09:51:14;;;;;;;15.68;5.53;;;5.50;99.90;;;;;;5011689;28;20687;-89
2023/12/27 09:53:40;;;;;;;17.13;6.25;;;5.60;99.90;;;;;;5011384;28;20045;-90
2023/12/27 09:56:08;;;;;;;14.93;5.90;;;5.50;99.90;;;;;;5012735;28;20409;-90
2023/12/27 09:58:36;;;;;;;13.63;6.50;;;5.60;99.90;;;;;;4996536;28;20105;-90
2023/12/27 10:01:05;;;;;;;17.48;6.18;;;5.60;99.90;;;;;;4994265;28;20083;-90
2023/12/27 10:03:35;;;;;;;14.77;5.78;;;5.60;99.90;;;;;;4993645;28;20029;-89
2023/12/27 10:06:20;;;;;;;14.07;4.60;;;5.60;99.90;;;;;;5010762;28;20037;-90
2023/12/27 10:08:46;;;;;;;11.90;4.93;;;5.60;99.90;;;;;;4994464;28;20113;-89
2023/12/27 10:11:12;;;;;;;13.88;5.88;;;5.70;99.90;;;;;;5010633;28;20133;-90
2023/12/27 10:13:40;;;;;;;12.93;5.68;;;5.70;99.90;;;;;;4994538;28;20060;-90
2023/12/27 10:16:07;;;;;;;17.52;5.68;;;5.70;99.90;;;;;;5013001;28;20037;-90
2023/12/27 10:18:33;;;;;;;16.08;5.55;;;5.70;99.90;;;;;;5015202;28;20675;-90
2023/12/27 10:20:59;;;;;;;18.27;5.32;;;5.70;99.90;;;;;;5014676;28;20552;-90
2023/12/27 10:23:24;;;;;;;12.50;4.80;;;5.80;99.90;;;;;;5014845;28;20117;-90
2023/12/27 10:25:51;;;;;;;15.27;5.43;;;5.80;99.90;;;;;;5014389;28;20037;-89
2023/12/27 10:28:17;;;;;;;14.07;4.38;;;5.80;99.90;;;;;;4996307;28;20064;-89
2023/12/27 10:30:45;;;;;;;15.40;5.57;;;5.80;99.90;;;;;;5013636;28;20048;-90
2023/12/27 10:33:10;;;;;;;17.10;5.13;;;5.80;99.90;;;;;;5012902;28;20038;-90
2023/12/27 10:35:38;;;;;;;15.63;6.03;;;5.80;99.90;;;;;;5013438;28;20045;-89
2023/12/27 10:38:05;;;;;;;13.48;5.25;;;5.80;99.90;;;;;;4997176;28;20045;-89
2023/12/27 10:40:32;;;;;;;12.57;5.55;;;5.80;99.90;;;;;;5013655;28;20072;-89
2023/12/27 10:42:58;;;;;;;12.32;4.65;;;5.80;99.90;;;;;;5012643;28;20084;-89
2023/12/27 10:45:24;;;;;;;10.18;5.00;;;5.80;99.90;;;;;;4996460;28;20073;-89
2023/12/27 10:47:56;;;;;;;13.80;6.40;;;5.80;99.90;;;;;;5014154;28;20526;-89
2023/12/27 10:50:22;;;;;;;14.73;5.18;;;5.90;99.90;;;;;;5013513;28;20041;-88
2023/12/27 10:53:02;;;;;;;12.50;4.40;;;5.90;99.90;;;;;;4996592;28;20453;-89
2023/12/27 10:55:29;;;;;;;11.32;4.85;;;5.90;99.90;;;;;;4996219;28;20396;-89
2023/12/27 10:57:55;;;;;;;11.40;4.38;;;5.90;99.90;;;;;;5012694;28;20041;-89
2023/12/27 11:00:24;;;;;;;11.18;5.13;;;5.90;99.90;;;;;;5012912;28;20045;-89
2023/12/27 11:02:51;;;;;;;13.38;5.13;;;5.90;99.90;;;;;;4996257;28;20033;-89
2023/12/27 11:05:20;;;;;;;13.38;4.95;;;5.90;99.90;;;;;;4993748;28;20041;-89
2023/12/27 11:07:46;;;;;;;11.90;5.55;;;5.90;99.90;;;;;;5010752;28;20038;-89
2023/12/27 11:10:16;;;;;;;13.27;5.40;;;6.00;99.90;;;;;;4996055;28;20535;-89
2023/12/27 11:12:47;;;;;;;12.95;5.05;;;6.00;99.90;;;;;;4986742;28;20034;-90
2023/12/27 11:15:18;;;;;;;11.73;5.25;;;6.00;99.90;;;;;;4991907;28;20435;-88
2023/12/27 11:17:45;;;;;;;12.05;5.95;;;6.00;99.90;;;;;;4994632;28;20091;-89
2023/12/27 11:20:12;;;;;;;11.07;5.30;;;6.00;99.90;;;;;;4996317;28;20049;-88
2023/12/27 11:22:39;;;;;;;10.20;4.57;;;6.00;99.90;;;;;;4996119;28;20405;-89
2023/12/27 11:25:05;;;;;;;12.45;5.45;;;6.00;99.90;;;;;;5010575;28;20044;-91
2023/12/27 11:27:32;;;;;;;12.43;4.35;;;6.00;99.90;;;;;;4995475;28;20622;-89
2023/12/27 11:29:58;;;;;;;11.88;5.03;;;6.10;99.90;;;;;;4996468;28;20064;-89
2023/12/27 11:32:27;;;;;;;13.45;5.65;;;6.00;99.90;;;;;;4996646;28;20029;-89
2023/12/27 11:34:56;;;;;;;11.93;4.90;;;6.00;99.90;;;;;;5009452;28;20090;-90
2023/12/27 11:37:26;;;;;;;11.98;5.28;;;6.10;99.90;;;;;;4996853;28;20128;-89
2023/12/27 11:39:52;;;;;;;11.68;5.22;;;6.10;99.90;;;;;;4996109;28;20037;-89
2023/12/27 11:42:18;;;;;;;12.15;5.15;;;6.10;99.90;;;;;;4996329;28;20056;-89
2023/12/27 11:44:58;;;;;;;12.80;5.50;;;6.10;99.90;;;;;;4995760;28;20048;-90
2023/12/27 11:47:27;;;;;;;11.77;6.10;;;6.10;99.90;;;;;;4995638;28;20128;-90
2023/12/27 11:50:12;;;;;;;10.50;5.38;;;6.20;99.90;;;;;;4996551;28;20034;-89
2023/12/27 11:52:47;;;;;;;14.93;5.00;;;6.20;99.90;;;;;;4995231;28;20037;-89
2023/12/27 11:55:24;;;;;;;10.10;4.40;;;6.20;99.90;;;;;;5011468;28;20045;-89
2023/12/27 11:57:59;;;;;;;10.20;4.57;;;6.20;99.90;;;;;;4995975;28;20041;-89
2023/12/27 12:00:29;;;;;;;9.70;4.45;;;6.30;99.90;;;;;;4991917;28;20219;-89
2023/12/27 12:03:00;;;;;;;12.27;4.40;;;6.30;99.90;;;;;;4995656;28;20041;-88
2023/12/27 12:05:36;;;;;;;11.35;5.22;;;6.30;99.90;;;;;;4989396;28;20099;-89
2023/12/27 12:08:12;;;;;;;10.38;4.60;;;6.30;99.90;;;;;;4996174;28;20095;-89
2023/12/27 12:10:38;;;;;;;9.48;4.97;;;6.30;99.90;;;;;;4995117;28;20076;-89
2023/12/27 12:13:04;;;;;;;9.27;4.50;;;6.30;99.90;;;;;;5012802;28;20107;-90
2023/12/27 12:15:30;;;;;;;9.35;4.72;;;6.30;99.90;;;;;;5013741;28;20037;-89
2023/12/27 12:17:57;;;;;;;10.27;5.07;;;6.30;99.90;;;;;;5017138;28;20077;-89
2023/12/27 12:20:22;;;;;;;10.70;5.13;;;6.40;99.90;;;;;;5003310;28;20040;-90
2023/12/27 12:22:49;;;;;;;9.52;4.35;;;6.40;99.90;;;;;;4992546;28;20037;-89
2023/12/27 12:25:15;;;;;;;11.30;5.60;;;6.50;99.90;;;;;;4995573;28;20041;-89
2023/12/27 12:27:44;;;;;;;12.18;5.43;;;6.50;99.90;;;;;;4994692;28;20086;-89
2023/12/27 12:30:11;;;;;;;10.00;5.13;;;6.50;99.90;;;;;;4994369;28;20060;-89
2023/12/27 12:32:42;;;;;;;12.80;6.03;;;6.50;99.90;;;;;;4994771;28;20076;-89
2023/12/27 12:35:09;;;;;;;11.63;6.00;;;6.50;99.90;;;;;;4991876;28;20073;-89
2023/12/27 12:37:36;;;;;;;11.25;4.90;;;6.60;99.90;;;;;;4994958;28;20036;-89
2023/12/27 12:40:06;;;;;;;12.32;6.07;;;6.60;99.90;;;;;;4991016;28;20045;-89
2023/12/27 12:42:33;;;;;;;11.55;6.10;;;6.60;99.90;;;;;;4991401;28;20084;-89
2023/12/27 12:45:00;;;;;;;11.70;5.95;;;6.70;99.90;;;;;;4994175;28;20033;-88
2023/12/27 12:47:26;;;;;;;10.75;5.60;;;6.70;99.90;;;;;;5010124;28;20740;-89
2023/12/27 12:49:52;;;;;;;14.43;7.57;;;6.70;99.90;;;;;;4994222;28;20075;-89